Ride Results

Nanango Heritage (15-06-2019)
Ride distance: 80.0 km

Outcomes - Nanango Heritage (15-06-2019)
Division No. of Entries Retired / DNE Completed Withdrawn Ineligible V/O Percentage Completed
HW 10 - 9 - - 1 90.00%
MW 21 - 19 - - 2 90.48%
LW 24 - 19 3 - 2 79.17%
JN 4 - 4 - - - 100.00%
Totals 59 - 51 3 - 5 86.44%
Results - Nanango Heritage (15-06-2019)
No. Rider Horse Place Time Leg Speeds Total
Km/Hr
H/R bpm
Heavyweight
146 Shane Butler Burralga Angelikh 1 5:24:27 15.4, 14.2 14.79 36, 48, 54 (Avg:51)
160 Mark Nimon Abbeywood Le'Tigre 2 (BC) 5:27:31 15.1, 14.1 14.66 41, 46, 49 (Avg:47)
126 Luke Annetts Churinga Taboo 3 6:12:06 13.1, 12.6 12.90 31, 46, 46 (Avg:46)
147 Ricky Petersen Cairo's Crystal 4 6:24:08 12.9, 12.1 12.50 40, 45, 44 (Avg:44)
157 Paul Roosen Kinder Surprise Silkk 5 6:24:52 12.8, 12.0 12.47 32, 41, 49 (Avg:45)
167 Gerard Bou Neon 6 6:37:37 13.0, 11.2 12.07 36, 51, 54 (Avg:52)
177 Natashja Burton Lindall La Flame 7 7:05:07 12.3, 10.4 11.29 38, 43, 55 (Avg:49)
149 Steve Swan Longrun Nelson 8 8:19:09 10.8, 8.6 9.62 33, 43, 48 (Avg:45)
180 Chris Holden True Sensie 9 8:45:37 10.8, 7.9 9.13 36, 54, 60 (Avg:57)
137 Barry Steele Aloha Rippling Gold Lame L2 0:00:00 14.9, 11.0 - 32, 54, 48 (Avg:51)
Middleweight
153 Fiona Fenech Aqaba Bronson 1 (BC) 4:46:27 16.4, 17.0 16.76 38, 50, 48 (Avg:49)
128 Jan Rohweder Woongarra Warrior 2 5:06:58 16.7, 14.6 15.64 32, 50, 53 (Avg:51)
143 Tanya Zanow Manet Ibn Rashan 2 5:06:58 16.7, 14.6 15.64 34, 47, 47 (Avg:47)
130 Keiran Rowley Rhythm Dancer 4 6:02:13 15.0, 11.8 13.25 26, 40, 41 (Avg:40)
127 Sasha Laws-King Churinga River of Dreams 5 6:12:11 13.1, 12.6 12.90 72, 48, 50 (Avg:49)
138 Saasha Grogan Halo Rhapsody In Blue 6 6:27:05 13.8, 11.1 12.40 37, 50, 49 (Avg:49)
162 Renae Kuhn East-Lynne Sahashi 7 6:37:07 13.0, 11.2 12.09 36, 49, 49 (Avg:49)
159 Jil Bourton Steel Poppy Midnight Rum 8 6:38:51 12.3, 11.7 12.03 27, 42, 44 (Avg:43)
176 Barbara Woods Splendacrest Perfection 9 6:51:37 13.3, 10.3 11.66 33, 46, 47 (Avg:46)
136 Robyn Pembroke Mt Eerwah Asheeba 10 6:59:30 12.3, 10.6 11.44 33, 39, 47 (Avg:43)
175 Emily Markey Briallyn Kirra Bint Zanir 11 7:19:01 13.2, 9.2 10.93 27, 44, 43 (Avg:43)
185 Lexi Morton Arny's Bad Moon Arisin 12 7:26:38 12.4, 9.4 10.75 35, 41, 52 (Avg:46)
165 Jo Hamilton-Branigan Kholonial Boadecia 13 7:28:09 11.3, 10.1 10.71 29, 42, 40 (Avg:41)
139 Mark Grogan S'Shaada Taesha 14 7:44:00 11.6, 9.3 10.34 37, 49, 53 (Avg:51)
142 Bridget Macintyre Champ 15 7:52:29 11.6, 9.0 10.16 36, 44, 54 (Avg:49)
141 Jacinta Stubbings Ffire Storm 16 7:55:21 10.9, 9.3 10.10 35, 49, 51 (Avg:50)
140 Liz Terry Ausden Illusion 17 8:05:32 11.5, 8.6 9.89 35, 48, 49 (Avg:48)
148 Jackie Swan Longrun Maya 18 8:18:36 10.8, 8.6 9.63 34, 38, 45 (Avg:41)
184 Vanessa Gorecki Bonds Ballistic 19 8:34:20 10.5, 8.3 9.33 26, 43, 50 (Avg:46)
131 Joy Craig Zameel Rafiq Lame L1 0:00:00 11.1 - 39, 48 (Avg:48)
170 Bec Miller Boonara Barbados Metabolics severe L1 0:00:00 11.7 - 32, 52 (Avg:52)
Lightweight
151 Shelley Chapman Cameo Felspar 1 (BC) 5:24:22 15.6, 14.0 14.80 33, 47, 52 (Avg:49)
129 Rachel Kuns Kelkette Park Silver Indicator 2 6:01:59 14.4, 12.2 13.26 35, 46, 52 (Avg:49)
161 Amanda Powell Jezabelle Jesse James 3 6:02:04 13.7, 12.7 13.26 34, 48, 54 (Avg:51)
125 Racheal Townsend Crystan 4 6:12:26 13.1, 12.6 12.89 33, 45, 58 (Avg:51)
156 Janelle Roosen Greywood Magenta 5 6:24:16 12.8, 12.1 12.49 35, 44, 47 (Avg:45)
179 Cindy Holden San Juan 6 6:24:22 12.8, 12.1 12.49 38, 52, 55 (Avg:53)
166 Alana Simpson Meea 7 6:24:38 12.8, 12.1 12.48 34, 47, 48 (Avg:47)
145 Mary Sims Mt Eerwah Silver Duet 8 6:27:16 13.8, 11.2 12.39 26, 39, 46 (Avg:42)
158 Kate Appleby Bashan Bayda 9 6:39:04 12.3, 11.6 12.03 32, 50, 44 (Avg:47)
164 Pandora Bevan My Fair Lady 10 6:51:46 13.2, 10.3 11.66 35, 50, 52 (Avg:51)
174 Corinne Rees Sonato 11 6:59:00 12.2, 10.7 11.46 38, 52, 54 (Avg:53)
135 Chelsea Moore Miva Zamil 12 6:59:22 12.4, 10.6 11.45 37, 43, 59 (Avg:51)
169 Jess Dakin Hirstglen Cruisader 13 7:09:35 11.7, 10.6 11.17 26, 46, 45 (Avg:45)
150 Carla Jones Kholonial Bartholomew 14 7:28:41 11.3, 10.1 10.70 32, 45, 51 (Avg:48)
182 Shannon Hill Burren-dah Narla 15 7:36:02 11.9, 9.4 10.53 32, 39, 43 (Avg:41)
178 Jess Kennedy Rodborough Safra 16 7:55:09 10.9, 9.3 10.10 32, 43, 46 (Avg:44)
171 Ruth Dixon El Romero 17 8:05:24 11.5, 8.6 9.89 27, 47, 50 (Avg:48)
134 Virginia Dale Jum Jum Spirit 18 8:33:59 11.1, 8.0 9.34 38, 50, 53 (Avg:51)
168 Sian Crawford Shazane 19 8:34:07 9.8, 8.8 9.34 37, 45, 52 (Avg:48)
144 Ema Basic Lil Mister Ultimate W/D on track L1 0:00:00 - - 35, 51 (Avg:51)
173 Julie Broken-Brow Lanamere Bay Rose Lame L1 0:00:00 12.2 - 35, 46 (Avg:46)
155 Sarah Huddleston Indiana Seabreeze W/D after vetting L1 0:00:00 - - 33, 45 (Avg:45)
181 Sarah Love Burren-dah Gladiator Heart Rate L1 0:00:00 12.6 - 33, 56 (Avg:56)
152 Maeve Paten Cameo Bizmarck W/D after vetting L1 0:00:00 - - 34, 45 (Avg:45)
Junior
172 Molly Choyce Abberlyn Park Astanna 1 (BC) 4:46:30 16.4, 17.0 16.75 31, 40, 46 (Avg:43)
163 Charlotte Williamson Riverdance Tigerlily 2 6:37:12 13.0, 11.2 12.08 33, 45, 48 (Avg:46)
186 Georgia Morton Mt Eerwah Silver Mariner 3 7:26:28 12.4, 9.4 10.75 28, 41, 48 (Avg:44)
183 Noah Hoogland Steel Poppy Hot Chocolate 4 8:34:41 10.5, 8.3 9.33 30, 40, 43 (Avg:41)